Latest Weather Observations for Norfolk Island

IDN60801

Issued at 6:35 pm EST Thursday 28 August 2014 (issued every 30 minutes, with the page automatically refreshed every 10 minutes)

About weather observations | Map of weather stations | Latest weather observations for NSW | Other Formats
Station Details ID: 200288 Name: NORFOLK ISLAND AERO Lat: -29.04 Lon: 167.94 Height: 111.73 m
Data from the previous 72 hours. | See also: Recent months at Norfolk Island
Date/Time
EST
Temp
°C
App
Temp
°C
Dew
Point
Rel
Hum
%
Delta-T
°C
Wind Press
QNH
hPa
Press
MSL
hPa
Rain
since 9 am
mm
Dir
 
Spd
km/h
Gust
km/h
Spd
kts
Gust
kts
28/06:30pm 17.5 16.7 17.0 97 0.3 NE 17 22 9 12 1016.7 - 0.0
28/06:15pm 17.5 16.7 17.0 97 0.3 NE 17 24 9 13 1016.6 - 0.0
28/06:00pm 17.4 16.5 16.9 97 0.3 NE 17 24 9 13 1016.5 - 0.0
28/05:48pm 17.5 16.7 17.0 97 0.3 NE 17 22 9 12 1016.5 - 0.0
28/05:27pm 17.7 16.9 17.2 97 0.3 NE 17 26 9 14 1016.3 - 0.0
28/05:03pm 17.7 17.3 17.2 97 0.3 NE 15 19 8 10 1016.1 - 0.0
28/05:00pm 17.8 17.4 17.1 96 0.4 NE 15 19 8 10 1016.1 - 0.0
28/04:46pm 17.9 17.5 17.1 95 0.5 NE 15 19 8 10 1016.1 - 0.0
28/04:30pm 17.9 17.8 16.9 94 0.6 NE 13 15 7 8 1015.9 1015.7 0.0
28/04:25pm 17.9 18.2 16.9 94 0.6 NE 11 15 6 8 1015.9 - 0.0
28/04:00pm 18.4 18.2 16.7 90 1.0 NE 13 17 7 9 1015.7 - 0.0
28/03:30pm 18.8 18.6 16.8 88 1.2 NNE 13 19 7 10 1015.7 - 0.0
28/03:00pm 19.5 18.8 16.5 83 1.8 NE 15 19 8 10 1015.5 - 0.0
28/02:30pm 19.8 19.4 16.3 80 2.1 NE 13 19 7 10 1015.5 - 0.0
28/02:00pm 20.2 19.8 16.2 78 2.4 NNE 13 19 7 10 1015.2 - 0.0
28/01:30pm 20.0 19.2 16.2 79 2.3 NNE 15 19 8 10 1015.3 1015.1 0.0
28/01:00pm 20.9 21.0 16.4 75 2.7 N 11 19 6 10 1015.5 - 0.0
28/12:30pm 20.4 20.0 16.1 76 2.6 NNW 13 24 7 13 1015.7 - 0.0
28/12:00pm 20.7 19.2 16.8 78 2.4 NNE 20 24 11 13 1015.6 - 0.0
28/11:47am 20.7 20.1 16.6 77 2.5 N 15 24 8 13 1015.6 - 0.0
28/11:30am 20.5 20.2 16.4 77 2.5 N 13 19 7 10 1015.8 - 0.0
28/11:00am 20.5 20.0 15.8 74 2.8 NNW 13 20 7 11 1015.9 - 0.0
28/10:30am 20.6 20.2 16.1 75 2.7 N 13 20 7 11 1016.1 1015.9 0.0
28/10:00am 20.4 20.0 16.3 77 2.5 N 13 20 7 11 1016.7 - 0.0
28/09:30am 20.5 20.0 16.9 80 2.2 N 15 24 8 13 1017.1 - 0.0
28/09:00am 19.4 19.2 16.8 85 1.6 N 13 19 7 10 1017.0 - 0.0
28/08:30am 19.5 19.5 16.3 82 1.9 NNW 11 17 6 9 1016.9 - 0.0
28/08:00am 18.8 19.0 16.8 88 1.2 N 11 19 6 10 1016.8 - 0.0
28/07:30am 18.9 19.0 16.4 85 1.5 N 11 19 6 10 1016.8 1016.6 3.4
28/07:00am 18.3 18.4 16.5 89 1.1 N 11 17 6 9 1016.6 - 3.4
28/06:30am 18.3 18.4 16.5 89 1.1 N 11 15 6 8 1016.2 - 3.4
28/06:00am 17.8 17.8 16.3 91 0.9 N 11 17 6 9 1016.0 - 3.4
28/05:30am 17.9 18.1 16.7 93 0.7 N 11 20 6 11 1015.7 - 3.4
28/05:00am 17.5 17.6 16.5 94 0.6 N 11 15 6 8 1015.5 - 3.4
28/04:30am 17.6 17.4 16.6 94 0.6 N 13 19 7 10 1014.9 1014.7 3.4
28/04:00am 17.5 17.5 16.3 93 0.7 N 11 19 6 10 1014.4 - 3.4
28/03:30am 17.5 17.1 16.2 92 0.8 N 13 20 7 11 1014.2 - 3.4
28/03:00am 17.5 17.9 16.3 93 0.7 N 9 19 5 10 1013.8 - 3.4
28/02:30am 17.4 17.9 16.6 95 0.5 N 9 17 5 9 1013.7 - 3.4
28/02:00am 17.7 17.9 16.7 94 0.6 N 11 20 6 11 1013.8 - 3.4
28/01:30am 17.7 17.5 16.7 94 0.6 N 13 22 7 12 1013.9 1013.8 3.4
28/01:23am 17.7 17.6 16.9 95 0.5 N 13 20 7 11 1014.1 - 3.4
28/01:10am 17.7 18.0 17.0 96 0.4 N 11 22 6 12 1014.3 - 3.0
28/01:00am 17.6 17.4 16.8 95 0.5 N 13 19 7 10 1014.4 - 3.0
28/12:30am 17.6 17.5 16.9 96 0.4 NNE 13 20 7 11 1014.4 - 3.0
28/12:07am 17.5 17.0 17.0 97 0.3 NNE 15 20 8 11 1014.6 - 3.0
28/12:00am 17.5 17.3 16.8 96 0.4 NNE 13 20 7 11 1014.6 - 3.0
 
Date/Time
EST
Temp
°C
App
Temp
°C
Dew
Point
Rel
Hum
%
Delta-T
°C
Wind Press
QNH
hPa
Press
MSL
hPa
Rain
since 9 am
mm
Dir
 
Spd
km/h
Gust
km/h
Spd
kts
Gust
kts
27/11:30pm 17.9 18.0 17.4 97 0.3 N 13 19 7 10 1014.6 - 3.0
27/11:03pm 17.7 17.3 17.2 97 0.3 N 15 22 8 12 1014.5 - 3.0
27/11:00pm 17.7 17.7 17.2 97 0.3 N 13 22 7 12 1014.6 - 3.0
27/10:47pm 17.8 17.8 17.3 97 0.3 NNE 13 19 7 10 1014.5 - 3.0
27/10:44pm 17.8 17.8 17.3 97 0.3 NNE 13 17 7 9 1014.5 - 3.0
27/10:30pm 17.6 16.9 17.3 98 0.2 NNE 17 24 9 13 1014.4 1014.2 3.0
27/10:28pm 17.7 17.3 17.2 97 0.3 NNE 15 24 8 13 1014.4 - 3.0
27/10:27pm 17.7 17.3 17.2 97 0.3 NNE 15 24 8 13 1014.4 - 3.0
27/10:00pm 17.7 17.1 17.5 99 0.1 NE 17 26 9 14 1014.4 - 0.0
27/09:30pm 17.7 16.7 17.5 99 0.1 NE 19 28 10 15 1014.2 - 0.0
27/09:00pm 17.8 17.2 17.5 98 0.2 NE 17 22 9 12 1014.5 - 0.0
27/08:30pm 17.7 17.1 17.5 99 0.1 ENE 17 24 9 13 1014.6 - 0.0
27/08:00pm 17.6 17.3 17.3 98 0.2 NE 15 24 8 13 1014.7 - 0.0
27/07:30pm 17.5 16.7 17.2 98 0.2 NE 17 20 9 11 1014.6 1014.4 0.0
27/07:00pm 17.5 16.7 17.2 98 0.2 NE 17 20 9 11 1014.8 - 0.0
27/06:30pm 17.5 17.0 17.0 97 0.3 NE 15 20 8 11 1014.1 - 0.0
27/06:00pm 17.6 17.2 17.1 97 0.3 NE 15 20 8 11 1013.7 - 0.0
27/05:48pm 17.7 17.4 17.4 98 0.2 ENE 15 20 8 11 1013.7 - 0.0
27/05:30pm 17.8 17.5 17.3 97 0.3 ENE 15 19 8 10 1013.4 - 0.0
27/05:00pm 17.8 17.1 17.3 97 0.3 ENE 17 26 9 14 1013.1 - 0.0
27/04:37pm 17.8 17.1 17.3 97 0.3 NE 17 24 9 13 1012.9 - 0.0
27/04:30pm 17.8 17.0 17.1 96 0.4 ENE 17 20 9 11 1012.9 1012.8 0.0
27/04:00pm 17.9 17.5 17.2 96 0.4 NE 15 22 8 12 1012.6 - 0.0
27/03:30pm 17.8 16.6 17.1 96 0.4 NE 19 26 10 14 1012.5 - 0.0
27/03:00pm 17.8 16.9 16.8 94 0.6 NE 17 26 9 14 1012.8 - 0.0
27/02:30pm 17.8 16.9 16.8 94 0.6 NE 17 26 9 14 1012.4 - 0.0
27/02:00pm 17.7 16.2 16.7 94 0.6 NE 20 32 11 17 1012.3 - 0.0
27/01:30pm 18.0 15.7 16.7 92 0.8 ENE 24 33 13 18 1012.1 1012.0 0.0
27/01:00pm 18.0 15.3 16.7 92 0.8 ENE 26 37 14 20 1012.2 - 0.0
27/12:30pm 18.4 15.1 16.9 91 0.9 ENE 30 39 16 21 1011.9 - 0.0
27/12:00pm 18.5 15.5 16.8 90 1.0 ENE 28 37 15 20 1012.0 - 0.0
27/11:30am 18.5 16.4 17.2 92 0.8 NE 24 33 13 18 1012.2 - 0.0
27/11:00am 19.2 16.5 17.6 90 1.0 NE 28 35 15 19 1012.5 - 0.0
27/10:30am 19.2 16.4 17.4 89 1.1 NE 28 35 15 19 1013.0 1012.9 0.0
27/10:00am 19.7 18.5 17.4 86 1.4 ENE 20 30 11 16 1013.1 - 0.0
27/09:30am 19.2 16.8 17.4 89 1.1 NE 26 33 14 18 1013.2 - 0.0
27/09:00am 18.9 17.0 17.6 92 0.8 ENE 24 32 13 17 1012.8 - 0.0
27/08:30am 18.1 15.5 16.9 93 0.7 E 26 35 14 19 1012.9 - 0.0
27/08:00am 17.7 14.2 16.5 93 0.7 E 30 41 16 22 1012.9 - 0.0
27/07:45am 17.4 13.4 16.1 92 0.8 E 32 43 17 23 1012.8 - 0.0
27/07:30am 17.2 12.9 15.8 91 0.8 E 33 46 18 25 1012.5 1012.4 18.2
27/07:00am 16.9 12.0 15.4 91 0.9 ENE 35 52 19 28 1012.5 - 18.2
27/06:30am 16.8 11.5 15.3 91 0.9 ENE 37 57 20 31 1012.5 - 18.2
27/06:17am 16.7 11.8 15.2 91 0.9 ENE 35 54 19 29 1012.4 - 18.2
27/06:00am 16.7 12.3 15.2 91 0.9 ENE 32 48 17 26 1012.3 - 18.2
27/05:37am 16.6 10.8 14.9 90 1.0 ENE 39 57 21 31 1012.1 - 18.2
27/05:30am 16.6 10.8 14.9 90 1.0 ENE 39 54 21 29 1012.0 - 18.2
27/05:00am 16.6 10.9 15.2 91 0.8 ENE 39 52 21 28 1012.0 - 18.2
27/04:40am 16.5 11.1 15.1 91 0.8 ENE 37 56 20 30 1011.9 - 18.2
27/04:30am 16.5 10.8 15.3 93 0.7 ENE 39 50 21 27 1012.0 1011.9 18.2
27/04:14am 16.5 11.3 15.5 94 0.6 ENE 37 57 20 31 1012.1 - 18.2
27/04:00am 16.5 10.8 15.3 93 0.7 E 39 56 21 30 1012.0 - 18.2
27/03:31am 16.6 11.0 15.4 93 0.7 E 39 57 21 31 1011.6 - 18.2
27/03:30am 16.6 11.3 15.2 91 0.8 E 37 54 20 29 1011.7 - 18.2
27/03:00am 16.5 11.2 15.3 93 0.7 ENE 37 56 20 30 1011.8 - 18.2
27/02:37am 16.5 11.2 15.3 93 0.7 ENE 37 56 20 30 1011.9 - 18.2
27/02:30am 16.6 11.3 15.4 93 0.7 ENE 37 50 20 27 1012.0 - 18.2
27/02:02am 16.4 11.8 15.0 91 0.8 ENE 33 54 18 29 1012.1 - 18.2
27/02:00am 16.4 11.8 15.0 91 0.8 ENE 33 50 18 27 1012.1 - 18.2
27/01:45am 16.4 11.8 15.0 91 0.8 ENE 33 52 18 28 1012.0 - 18.2
27/01:30am 16.6 11.8 15.6 94 0.6 ENE 35 59 19 32 1012.1 1012.0 18.2
27/01:14am 16.6 13.1 15.6 94 0.6 ENE 28 48 15 26 1012.1 - 18.2
27/01:09am 16.6 12.1 15.4 93 0.7 ENE 33 52 18 28 1012.2 - 18.2
27/01:00am 16.5 11.7 15.5 94 0.6 ENE 35 48 19 26 1012.5 - 18.2
27/12:58am 16.5 12.0 15.3 93 0.7 ENE 33 48 18 26 1012.4 - 18.2
27/12:34am 16.6 12.4 15.6 94 0.6 ENE 32 56 17 30 1012.8 - 18.2
27/12:33am 16.6 12.4 15.6 94 0.6 ENE 32 44 17 24 1012.8 - 18.2
27/12:30am 16.6 12.2 15.6 94 0.6 ENE 33 52 18 28 1012.8 - 18.2
27/12:00am 16.4 10.9 15.7 96 0.4 ENE 39 61 21 33 1012.8 - 18.2
 
Date/Time
EST
Temp
°C
App
Temp
°C
Dew
Point
Rel
Hum
%
Delta-T
°C
Wind Press
QNH
hPa
Press
MSL
hPa
Rain
since 9 am
mm
Dir
 
Spd
km/h
Gust
km/h
Spd
kts
Gust
kts
26/11:54pm 16.3 10.0 15.6 96 0.4 ENE 43 65 23 35 1012.9 - 18.2
26/11:30pm 16.3 11.9 15.6 96 0.4 ENE 33 52 18 28 1013.2 - 18.0
26/11:26pm 16.3 12.8 15.6 96 0.4 ENE 28 48 15 26 1013.2 - 18.0
26/11:00pm 16.2 11.7 15.5 96 0.4 ENE 33 48 18 26 1013.5 - 16.2
26/10:30pm 16.0 10.8 15.5 97 0.3 ENE 37 54 20 29 1013.8 1013.7 13.2
26/10:00pm 16.2 10.9 15.3 94 0.5 ENE 37 57 20 31 1013.9 - 12.2
26/09:30pm 16.1 9.7 15.4 96 0.4 ENE 43 72 23 39 1013.9 - 12.0
26/09:00pm 16.1 9.7 15.4 96 0.4 ENE 43 61 23 33 1014.2 - 12.0
26/08:30pm 16.0 9.9 15.3 96 0.4 ENE 41 61 22 33 1014.2 - 11.8
26/08:00pm 16.0 9.3 15.1 94 0.5 ENE 44 63 24 34 1014.2 - 11.6
26/07:32pm 15.9 9.2 15.0 94 0.5 ENE 44 67 24 36 1014.5 - 11.4
26/07:30pm 16.0 9.5 15.1 94 0.5 ENE 43 59 23 32 1014.5 1014.3 11.2
26/07:06pm 15.9 9.3 14.9 94 0.6 ENE 43 70 23 38 1014.5 - 10.2
26/07:00pm 15.8 9.6 14.9 94 0.5 E 41 57 22 31 1014.5 - 10.0
26/06:44pm 15.8 8.6 14.8 94 0.6 E 46 67 25 36 1014.3 - 9.8
26/06:30pm 15.7 9.1 14.8 94 0.5 ENE 43 59 23 32 1014.3 - 9.4
26/06:08pm 15.9 8.4 14.9 94 0.6 ENE 48 67 26 36 1013.9 - 8.4
26/06:00pm 15.9 9.1 14.7 93 0.7 ENE 44 61 24 33 1013.9 - 8.4
26/05:30pm 15.9 9.2 14.5 91 0.8 E 43 65 23 35 1013.8 - 7.8
26/05:00pm 15.8 8.8 14.2 90 0.9 E 44 69 24 37 1013.6 - 7.8
26/04:54pm 15.7 8.6 14.1 90 0.9 E 44 69 24 37 1013.5 - 7.8
26/04:30pm 15.8 8.5 14.4 91 0.8 ENE 46 70 25 38 1013.3 1013.2 7.8
26/04:00pm 15.8 7.2 13.9 88 1.1 ENE 52 74 28 40 1012.8 - 7.8
26/03:32pm 15.5 7.8 14.3 92 0.7 E 48 67 26 36 1012.8 - 7.8
26/03:30pm 15.5 7.8 14.3 92 0.7 E 48 65 26 35 1012.8 - 7.8
26/03:03pm 15.5 7.9 13.7 89 1.0 ENE 46 69 25 37 1013.1 - 7.6
26/03:00pm 15.5 7.9 13.5 88 1.1 ENE 46 69 25 37 1013.2 - 7.6
26/02:41pm 15.9 7.4 13.2 84 1.5 ENE 50 70 27 38 1013.2 - 7.6
26/02:30pm 15.8 7.7 13.3 85 1.4 ENE 48 61 26 33 1013.2 - 7.6
26/02:20pm 15.5 7.9 13.7 89 1.0 ENE 46 61 25 33 1013.3 - 7.6
26/02:04pm 15.2 8.1 14.1 93 0.6 ENE 44 63 24 34 1013.5 - 7.6
26/02:01pm 15.2 7.4 14.0 92 0.7 ENE 48 67 26 36 1013.5 - 7.6
26/02:00pm 15.2 7.0 14.0 92 0.7 ENE 50 67 27 36 1013.5 - 7.6
26/01:50pm 15.0 6.6 13.4 90 0.9 ENE 50 70 27 38 1013.4 - 7.4
26/01:30pm 15.1 6.9 14.0 93 0.6 ENE 50 69 27 37 1013.6 1013.5 7.4
26/01:25pm 15.2 7.4 14.1 93 0.6 ENE 48 69 26 37 1013.7 - 7.4
26/01:07pm 15.2 7.0 14.0 92 0.7 ENE 50 69 27 37 1013.9 - 7.2
26/01:00pm 15.1 6.9 14.0 93 0.6 ENE 50 72 27 39 1014.1 - 7.0
26/12:56pm 15.0 7.1 13.9 93 0.6 ENE 48 72 26 39 1014.2 - 7.0
26/12:50pm 14.9 7.3 13.5 91 0.8 ENE 46 69 25 37 1014.4 - 7.0
26/12:30pm 14.9 6.9 13.5 91 0.8 ENE 48 67 26 36 1015.1 - 6.4
26/12:21pm 15.2 6.4 13.4 89 1.0 ENE 52 78 28 42 1015.0 - 6.4
26/12:00pm 15.6 8.4 13.8 89 1.0 E 44 65 24 35 1015.4 - 6.4
26/11:48am 15.3 7.3 13.5 89 1.0 ENE 48 67 26 36 1015.6 - 6.4
26/11:44am 15.1 7.0 13.3 89 1.0 ENE 48 63 26 34 1015.9 - 6.4
26/11:30am 14.9 6.1 13.3 90 0.9 ENE 52 72 28 39 1015.8 - 6.2
26/11:14am 15.1 6.6 13.1 88 1.1 ENE 50 82 27 44 1015.8 - 5.4
26/11:00am 15.4 6.2 13.4 88 1.1 E 54 74 29 40 1015.2 - 5.4
26/10:30am 15.0 6.6 13.6 91 0.8 ENE 50 74 27 40 1016.0 1015.8 5.2
26/10:22am 15.0 5.8 13.4 90 0.9 ENE 54 76 29 41 1016.1 - 5.0
26/10:00am 14.3 5.6 12.7 90 0.9 ENE 50 69 27 37 1016.3 - 4.8
26/09:30am 14.3 6.0 12.7 90 0.9 ENE 48 69 26 37 1016.9 - 3.4
26/09:00am 14.3 7.4 12.7 90 0.9 ENE 41 59 22 32 1017.5 - 2.8
26/08:30am 14.2 6.6 12.4 89 1.0 ENE 44 69 24 37 1017.8 - 2.0
26/08:16am 14.3 6.4 12.7 90 0.9 ENE 46 72 25 39 1017.9 - 1.2
26/08:00am 14.0 6.0 12.5 91 0.8 ENE 46 63 25 34 1018.0 - 0.8
26/07:57am 14.0 5.6 12.3 89 0.9 ENE 48 72 26 39 1018.1 - 0.6
26/07:50am 14.0 5.8 11.8 86 1.2 ENE 46 72 25 39 1018.1 - 0.2
26/07:30am 13.8 6.1 11.6 86 1.2 ENE 43 57 23 31 1018.9 1018.8 22.8
26/07:09am 14.1 6.6 12.1 88 1.1 ENE 43 63 23 34 1018.2 - 22.8
26/07:04am 14.0 6.5 12.0 88 1.1 ENE 43 57 23 31 1018.5 - 22.8
26/07:00am 14.0 6.8 11.8 86 1.2 ENE 41 57 22 31 1018.7 - 22.6
26/06:44am 14.5 8.8 12.9 90 0.9 ENE 35 50 19 27 1018.6 - 22.4
26/06:30am 14.4 7.4 12.4 88 1.1 E 41 59 22 32 1018.6 - 22.4
26/06:18am 14.3 7.6 12.3 88 1.1 ENE 39 57 21 31 1018.7 - 22.4
26/06:00am 14.3 7.6 12.3 88 1.1 ENE 39 56 21 30 1018.4 - 22.0
26/05:42am 14.3 8.9 12.8 91 0.8 ENE 33 52 18 28 1018.8 - 21.6
26/05:30am 14.3 9.0 13.0 92 0.7 ENE 33 54 18 29 1018.7 - 21.4
26/05:28am 14.3 8.9 12.8 91 0.8 ENE 33 54 18 29 1018.6 - 21.4
26/05:17am 14.2 8.8 12.7 91 0.8 ENE 33 44 18 24 1018.4 - 21.4
26/05:01am 14.0 7.7 12.3 89 0.9 ENE 37 56 20 30 1018.0 - 21.0
26/05:00am 14.0 8.1 12.3 89 0.9 ENE 35 52 19 28 1018.0 - 20.8
26/04:49am 14.0 8.1 12.5 91 0.8 E 35 46 19 25 1018.1 - 20.4
26/04:45am 13.8 7.8 12.1 89 0.9 E 35 46 19 25 1017.8 - 20.2
26/04:30am 13.8 8.1 11.9 88 1.0 ENE 33 56 18 30 1018.0 1017.9 19.8
26/04:27am 13.8 8.1 11.9 88 1.0 ENE 33 56 18 30 1017.8 - 19.6
26/04:08am 13.7 7.6 11.6 87 1.1 E 35 48 19 26 1017.2 - 18.2
26/04:00am 13.3 6.9 10.8 85 1.3 E 35 48 19 26 1017.5 - 17.8
26/03:33am 13.7 7.2 11.6 87 1.1 ENE 37 56 20 30 1017.5 - 17.0
26/03:30am 13.6 7.0 11.5 87 1.1 ENE 37 56 20 30 1017.6 - 17.0
26/03:25am 13.6 7.4 11.5 87 1.1 ENE 35 54 19 29 1017.3 - 16.8
26/03:00am 13.8 8.0 11.6 86 1.2 E 33 46 18 25 1017.9 - 15.2
26/02:52am 13.8 7.5 11.0 83 1.5 ENE 35 50 19 27 1017.9 - 14.8
26/02:30am 14.2 8.2 12.2 88 1.1 ENE 35 50 19 27 1017.5 - 14.4
26/02:00am 14.4 8.1 12.2 87 1.2 E 37 50 20 27 1017.7 - 13.0
26/01:40am 14.7 9.3 12.7 88 1.1 ENE 33 54 18 29 1017.9 - 12.6
26/01:30am 14.8 9.0 12.8 88 1.1 E 35 46 19 25 1018.2 1018.1 12.4
26/01:17am 14.7 9.3 12.9 89 1.0 E 33 52 18 28 1018.0 - 12.2
26/01:00am 14.3 7.4 11.5 83 1.5 ENE 39 54 21 29 1018.0 - 12.0
26/12:56am 14.4 7.6 11.8 84 1.4 ENE 39 57 21 31 1018.3 - 11.8
26/12:46am 14.5 7.8 12.3 87 1.2 ENE 39 57 21 31 1018.4 - 11.4
26/12:30am 14.8 8.8 13.2 90 0.9 ENE 37 50 20 27 1018.5 - 10.6
26/12:19am 15.0 9.4 13.4 90 0.9 ENE 35 54 19 29 1018.8 - 10.0
26/12:02am 15.1 9.5 13.3 89 1.0 ENE 35 48 19 26 1019.1 - 9.0
26/12:00am 15.2 10.0 13.4 89 1.0 ENE 33 46 18 25 1019.2 - 8.8
 
Date/Time
EST
Temp
°C
App
Temp
°C
Dew
Point
Rel
Hum
%
Delta-T
°C
Wind Press
QNH
hPa
Press
MSL
hPa
Rain
since 9 am
mm
Dir
 
Spd
km/h
Gust
km/h
Spd
kts
Gust
kts
25/11:30pm 15.2 8.9 12.3 83 1.6 ENE 37 56 20 30 1019.5 - 8.2
25/11:24pm 15.2 9.8 12.7 85 1.4 ENE 33 52 18 28 1019.4 - 8.2
25/11:10pm 15.0 9.3 13.0 88 1.1 E 35 52 19 28 1019.3 - 8.2
25/11:06pm 14.9 9.2 12.9 88 1.1 E 35 52 19 28 1019.2 - 8.0
25/11:00pm 14.7 8.6 13.1 90 0.9 E 37 50 20 27 1019.1 - 8.0
25/10:54pm 14.6 8.9 13.0 90 0.9 ENE 35 50 19 27 1019.2 - 8.0
25/10:48pm 14.5 8.4 13.1 91 0.8 E 37 56 20 30 1019.3 - 8.0
25/10:47pm 14.4 7.9 13.0 91 0.8 E 39 56 21 30 1019.3 - 8.0
25/10:33pm 14.6 9.0 13.3 92 0.7 E 35 52 19 28 1019.3 - 7.8
25/10:30pm 14.6 9.0 13.3 92 0.7 E 35 52 19 28 1019.2 1019.1 7.6
25/10:00pm 14.8 8.5 13.4 91 0.8 ENE 39 54 21 29 1020.1 - 7.0
25/09:44pm 15.0 9.1 13.6 91 0.8 E 37 57 20 31 1020.2 - 6.2
25/09:41pm 15.1 9.2 13.5 90 0.9 ENE 37 52 20 28 1020.3 - 6.0
25/09:30pm 15.1 9.5 13.3 89 1.0 ENE 35 46 19 25 1020.5 - 6.0
25/09:06pm 15.1 9.6 13.5 90 0.9 ENE 35 56 19 30 1020.4 - 5.4
25/09:00pm 15.0 9.4 13.4 90 0.9 ENE 35 52 19 28 1020.3 - 5.4
25/08:40pm 14.9 8.5 13.1 89 1.0 ENE 39 57 21 31 1020.4 - 5.2
25/08:30pm 15.0 8.6 13.2 89 1.0 ENE 39 52 21 28 1020.6 - 4.8
25/08:00pm 14.8 8.8 12.0 83 1.5 ENE 35 46 19 25 1020.9 - 3.6
25/07:30pm 15.2 8.5 12.3 83 1.6 ENE 39 57 21 31 1020.6 1020.5 3.0
25/07:15pm 15.3 9.0 12.2 82 1.7 ENE 37 56 20 30 1020.8 - 2.8
25/07:00pm 15.8 8.7 12.1 78 2.0 ENE 41 56 22 30 1020.8 - 2.8
25/06:30pm 15.7 9.4 12.2 80 1.9 ENE 37 54 20 29 1020.4 - 2.8
25/06:23pm 15.7 9.0 12.2 80 1.9 ENE 39 57 21 31 1020.2 - 2.8
25/06:00pm 15.6 9.1 12.9 84 1.5 E 39 56 21 30 1019.9 - 2.8
25/05:30pm 15.3 9.5 12.6 84 1.5 E 35 48 19 26 1020.0 - 2.6

Other Formats:

Comma delimited format used in spreadsheet applications
http://www.bom.gov.au/fwo/IDN60801/IDN60801.94996.axf

JavaScript Object Notation format (JSON) in row-major order
http://www.bom.gov.au/fwo/IDN60801/IDN60801.94996.json